CheckWX is a tool to help pilots better visualize weather data.  It is not intended as a substitute for an official pre-flight weather briefing.

02:55:37 UTC

KSLR METAR
Sulphur Springs Municipal Airport
Sulphur Springs, Texas, USA
Current

21 mins ago

KSLR 250235Z AUTO 00000KT 10SM CLR 04/M02 A3014 RMK AO2 T00401024
Observed
Jan-25 @ 02:35 UTC
Visibility
10 SM
Flight Rules
VFR
Cloud Levels
  • Clear skies
Temperature
C / 39°F
Dewpoint
-2°C / 28°F
Humidity
65%
Altimeter
30.14" Hg
Pressure
1020.62 hPa
Previous

41 mins ago

KSLR 250215Z AUTO 00000KT 10SM CLR 05/M01 A3014 RMK AO2 T00511015
Observed
Jan-25 @ 02:15 UTC
Visibility
10 SM
Flight Rules
VFR
Cloud Levels
  • Clear skies
Temperature
C / 41°F
Dewpoint
-2°C / 28°F
Humidity
61%
Altimeter
30.14" Hg
Pressure
1020.62 hPa
Previous

1 hour ago

KSLR 250155Z AUTO 20003KT 10SM CLR 07/00 A3014 RMK AO2 T00701001
Observed
Jan-25 @ 01:55 UTC
Wind
  • 200° at 3 KTS
Visibility
10 SM
Flight Rules
VFR
Cloud Levels
  • Clear skies
Temperature
C / 45°F
Dewpoint
-0°C / 32°F
Humidity
61%
Altimeter
30.14" Hg
Pressure
1020.62 hPa